sensor_id;sensor_type;location;lat;lon;timestamp;P1;durP1;ratioP1;P2;durP2;ratioP2
31692;SDS011;37436;53.230;6.614;2023-04-06T00:01:52;20.65;;;8.40;;
31692;SDS011;37436;53.230;6.614;2023-04-06T00:04:18;19.30;;;8.43;;
31692;SDS011;37436;53.230;6.614;2023-04-06T00:06:47;14.80;;;8.60;;
31692;SDS011;37436;53.230;6.614;2023-04-06T00:09:13;13.93;;;8.13;;
31692;SDS011;37436;53.230;6.614;2023-04-06T00:11:40;17.90;;;8.70;;
31692;SDS011;37436;53.230;6.614;2023-04-06T00:14:06;14.75;;;7.80;;
31692;SDS011;37436;53.230;6.614;2023-04-06T00:16:32;24.85;;;8.63;;
31692;SDS011;37436;53.230;6.614;2023-04-06T00:18:58;17.98;;;8.65;;
31692;SDS011;37436;53.230;6.614;2023-04-06T00:21:25;17.80;;;8.70;;
31692;SDS011;37436;53.230;6.614;2023-04-06T00:23:51;15.80;;;8.13;;
31692;SDS011;37436;53.230;6.614;2023-04-06T00:26:17;22.73;;;8.93;;
31692;SDS011;37436;53.230;6.614;2023-04-06T00:28:43;22.27;;;8.20;;
31692;SDS011;37436;53.230;6.614;2023-04-06T00:31:10;16.38;;;8.10;;
31692;SDS011;37436;53.230;6.614;2023-04-06T00:33:36;17.60;;;7.90;;
31692;SDS011;37436;53.230;6.614;2023-04-06T00:36:02;23.40;;;8.90;;
31692;SDS011;37436;53.230;6.614;2023-04-06T00:38:30;25.10;;;9.25;;
31692;SDS011;37436;53.230;6.614;2023-04-06T00:40:56;18.42;;;8.27;;
31692;SDS011;37436;53.230;6.614;2023-04-06T00:43:22;18.88;;;8.43;;
31692;SDS011;37436;53.230;6.614;2023-04-06T00:45:49;20.13;;;8.57;;
31692;SDS011;37436;53.230;6.614;2023-04-06T00:48:18;24.63;;;9.25;;
31692;SDS011;37436;53.230;6.614;2023-04-06T00:50:45;27.02;;;8.02;;
31692;SDS011;37436;53.230;6.614;2023-04-06T00:53:11;19.40;;;8.23;;
31692;SDS011;37436;53.230;6.614;2023-04-06T00:55:38;21.88;;;9.85;;
31692;SDS011;37436;53.230;6.614;2023-04-06T00:58:04;18.02;;;9.05;;
31692;SDS011;37436;53.230;6.614;2023-04-06T01:00:31;19.08;;;9.40;;
31692;SDS011;37436;53.230;6.614;2023-04-06T01:02:58;23.80;;;9.52;;
31692;SDS011;37436;53.230;6.614;2023-04-06T01:05:24;20.85;;;9.13;;
31692;SDS011;37436;53.230;6.614;2023-04-06T01:07:54;16.77;;;8.05;;
31692;SDS011;37436;53.230;6.614;2023-04-06T01:10:26;20.70;;;9.35;;
31692;SDS011;37436;53.230;6.614;2023-04-06T01:12:53;19.45;;;9.15;;
31692;SDS011;37436;53.230;6.614;2023-04-06T01:15:19;21.52;;;9.98;;
31692;SDS011;37436;53.230;6.614;2023-04-06T01:17:46;21.20;;;9.13;;
31692;SDS011;37436;53.230;6.614;2023-04-06T01:20:13;21.02;;;9.82;;
31692;SDS011;37436;53.230;6.614;2023-04-06T01:22:43;17.77;;;9.02;;
31692;SDS011;37436;53.230;6.614;2023-04-06T01:25:09;19.42;;;9.18;;
31692;SDS011;37436;53.230;6.614;2023-04-06T01:27:36;21.55;;;9.77;;
31692;SDS011;37436;53.230;6.614;2023-04-06T01:30:02;24.15;;;9.80;;
31692;SDS011;37436;53.230;6.614;2023-04-06T01:32:31;21.30;;;9.73;;
31692;SDS011;37436;53.230;6.614;2023-04-06T01:34:59;20.10;;;9.30;;
31692;SDS011;37436;53.230;6.614;2023-04-06T01:37:25;20.38;;;9.27;;
31692;SDS011;37436;53.230;6.614;2023-04-06T01:39:51;20.52;;;9.63;;
31692;SDS011;37436;53.230;6.614;2023-04-06T01:42:18;25.25;;;11.10;;
31692;SDS011;37436;53.230;6.614;2023-04-06T01:44:44;21.00;;;9.57;;
31692;SDS011;37436;53.230;6.614;2023-04-06T01:47:11;18.38;;;9.30;;
31692;SDS011;37436;53.230;6.614;2023-04-06T01:49:37;22.85;;;9.50;;
31692;SDS011;37436;53.230;6.614;2023-04-06T01:52:12;24.05;;;10.18;;
31692;SDS011;37436;53.230;6.614;2023-04-06T01:57:04;18.98;;;9.65;;
31692;SDS011;37436;53.230;6.614;2023-04-06T01:59:33;21.27;;;9.70;;
31692;SDS011;37436;53.230;6.614;2023-04-06T02:01:59;19.85;;;9.13;;
31692;SDS011;37436;53.230;6.614;2023-04-06T02:04:25;21.58;;;9.82;;
31692;SDS011;37436;53.230;6.614;2023-04-06T02:06:51;24.77;;;9.70;;
31692;SDS011;37436;53.230;6.614;2023-04-06T02:09:17;22.10;;;9.93;;
31692;SDS011;37436;53.230;6.614;2023-04-06T02:11:44;16.23;;;9.57;;
31692;SDS011;37436;53.230;6.614;2023-04-06T02:14:12;17.65;;;8.57;;
31692;SDS011;37436;53.230;6.614;2023-04-06T02:16:38;19.63;;;8.70;;
31692;SDS011;37436;53.230;6.614;2023-04-06T02:19:04;19.83;;;9.40;;
31692;SDS011;37436;53.230;6.614;2023-04-06T02:21:31;25.58;;;9.50;;
31692;SDS011;37436;53.230;6.614;2023-04-06T02:23:57;19.35;;;9.50;;
31692;SDS011;37436;53.230;6.614;2023-04-06T02:26:23;19.20;;;9.15;;
31692;SDS011;37436;53.230;6.614;2023-04-06T02:28:49;20.83;;;9.70;;
31692;SDS011;37436;53.230;6.614;2023-04-06T02:31:16;16.55;;;8.90;;
31692;SDS011;37436;53.230;6.614;2023-04-06T02:33:42;23.45;;;9.85;;
31692;SDS011;37436;53.230;6.614;2023-04-06T02:36:08;25.55;;;9.90;;
31692;SDS011;37436;53.230;6.614;2023-04-06T02:38:34;25.60;;;9.20;;
31692;SDS011;37436;53.230;6.614;2023-04-06T02:41:01;17.90;;;9.43;;
31692;SDS011;37436;53.230;6.614;2023-04-06T02:43:27;20.30;;;9.60;;
31692;SDS011;37436;53.230;6.614;2023-04-06T02:45:53;22.38;;;9.95;;
31692;SDS011;37436;53.230;6.614;2023-04-06T02:48:19;22.88;;;9.95;;
31692;SDS011;37436;53.230;6.614;2023-04-06T02:50:48;21.05;;;10.13;;
31692;SDS011;37436;53.230;6.614;2023-04-06T02:53:14;27.20;;;9.52;;
31692;SDS011;37436;53.230;6.614;2023-04-06T02:55:43;17.38;;;9.18;;
31692;SDS011;37436;53.230;6.614;2023-04-06T02:58:09;23.90;;;9.90;;
31692;SDS011;37436;53.230;6.614;2023-04-06T03:00:36;19.20;;;10.10;;
31692;SDS011;37436;53.230;6.614;2023-04-06T03:03:03;19.27;;;9.10;;
31692;SDS011;37436;53.230;6.614;2023-04-06T03:05:29;20.48;;;10.07;;
31692;SDS011;37436;53.230;6.614;2023-04-06T03:07:55;16.50;;;9.30;;
31692;SDS011;37436;53.230;6.614;2023-04-06T03:10:21;18.60;;;9.90;;
31692;SDS011;37436;53.230;6.614;2023-04-06T03:12:48;23.48;;;10.10;;
31692;SDS011;37436;53.230;6.614;2023-04-06T03:15:14;17.70;;;8.93;;
31692;SDS011;37436;53.230;6.614;2023-04-06T03:17:40;19.30;;;10.13;;
31692;SDS011;37436;53.230;6.614;2023-04-06T03:20:10;22.50;;;10.05;;
31692;SDS011;37436;53.230;6.614;2023-04-06T03:22:38;24.70;;;10.02;;
31692;SDS011;37436;53.230;6.614;2023-04-06T03:25:14;20.38;;;10.05;;
31692;SDS011;37436;53.230;6.614;2023-04-06T03:27:40;25.00;;;10.32;;
31692;SDS011;37436;53.230;6.614;2023-04-06T03:30:06;20.63;;;10.77;;
31692;SDS011;37436;53.230;6.614;2023-04-06T03:32:33;23.55;;;9.85;;
31692;SDS011;37436;53.230;6.614;2023-04-06T03:35:00;21.45;;;9.55;;
31692;SDS011;37436;53.230;6.614;2023-04-06T03:37:28;22.63;;;9.98;;
31692;SDS011;37436;53.230;6.614;2023-04-06T03:39:58;23.25;;;10.38;;
31692;SDS011;37436;53.230;6.614;2023-04-06T03:42:24;21.73;;;10.60;;
31692;SDS011;37436;53.230;6.614;2023-04-06T03:44:51;27.00;;;10.00;;
31692;SDS011;37436;53.230;6.614;2023-04-06T03:47:18;22.17;;;10.10;;
31692;SDS011;37436;53.230;6.614;2023-04-06T03:49:45;23.65;;;10.07;;
31692;SDS011;37436;53.230;6.614;2023-04-06T03:52:11;19.60;;;9.40;;
31692;SDS011;37436;53.230;6.614;2023-04-06T03:54:43;30.35;;;10.75;;
31692;SDS011;37436;53.230;6.614;2023-04-06T03:57:09;26.25;;;10.80;;
31692;SDS011;37436;53.230;6.614;2023-04-06T03:59:36;20.60;;;10.25;;
31692;SDS011;37436;53.230;6.614;2023-04-06T04:02:09;24.58;;;10.93;;
31692;SDS011;37436;53.230;6.614;2023-04-06T04:04:35;22.63;;;10.75;;
31692;SDS011;37436;53.230;6.614;2023-04-06T04:07:01;24.83;;;9.77;;
31692;SDS011;37436;53.230;6.614;2023-04-06T04:09:27;19.38;;;9.55;;
31692;SDS011;37436;53.230;6.614;2023-04-06T04:11:53;22.80;;;9.13;;
31692;SDS011;37436;53.230;6.614;2023-04-06T04:14:26;19.80;;;9.50;;
31692;SDS011;37436;53.230;6.614;2023-04-06T04:16:52;19.67;;;11.07;;
31692;SDS011;37436;53.230;6.614;2023-04-06T04:19:25;19.38;;;9.65;;
31692;SDS011;37436;53.230;6.614;2023-04-06T04:21:51;21.13;;;10.02;;
31692;SDS011;37436;53.230;6.614;2023-04-06T04:24:17;20.95;;;10.02;;
31692;SDS011;37436;53.230;6.614;2023-04-06T04:26:46;19.17;;;10.35;;
31692;SDS011;37436;53.230;6.614;2023-04-06T04:29:12;22.60;;;10.95;;
31692;SDS011;37436;53.230;6.614;2023-04-06T04:31:57;24.42;;;10.52;;
31692;SDS011;37436;53.230;6.614;2023-04-06T04:34:23;23.17;;;9.57;;
31692;SDS011;37436;53.230;6.614;2023-04-06T04:36:53;21.13;;;9.63;;
31692;SDS011;37436;53.230;6.614;2023-04-06T04:39:19;24.23;;;9.60;;
31692;SDS011;37436;53.230;6.614;2023-04-06T04:41:45;22.00;;;8.40;;
31692;SDS011;37436;53.230;6.614;2023-04-06T04:44:12;19.08;;;9.05;;
31692;SDS011;37436;53.230;6.614;2023-04-06T04:46:38;28.88;;;8.82;;
31692;SDS011;37436;53.230;6.614;2023-04-06T04:49:07;23.70;;;9.10;;
31692;SDS011;37436;53.230;6.614;2023-04-06T04:51:35;25.40;;;10.15;;
31692;SDS011;37436;53.230;6.614;2023-04-06T04:54:01;20.33;;;9.63;;
31692;SDS011;37436;53.230;6.614;2023-04-06T04:56:27;25.88;;;9.18;;
31692;SDS011;37436;53.230;6.614;2023-04-06T04:58:55;20.02;;;8.70;;
31692;SDS011;37436;53.230;6.614;2023-04-06T05:01:28;17.50;;;8.63;;
31692;SDS011;37436;53.230;6.614;2023-04-06T05:03:55;19.58;;;8.60;;
31692;SDS011;37436;53.230;6.614;2023-04-06T05:06:21;17.42;;;8.63;;
31692;SDS011;37436;53.230;6.614;2023-04-06T05:08:56;18.67;;;8.57;;
31692;SDS011;37436;53.230;6.614;2023-04-06T05:13:48;22.42;;;8.88;;
31692;SDS011;37436;53.230;6.614;2023-04-06T05:16:15;23.48;;;8.90;;
31692;SDS011;37436;53.230;6.614;2023-04-06T05:18:41;22.08;;;9.20;;
31692;SDS011;37436;53.230;6.614;2023-04-06T05:21:10;16.98;;;8.68;;
31692;SDS011;37436;53.230;6.614;2023-04-06T05:23:36;20.90;;;9.75;;
31692;SDS011;37436;53.230;6.614;2023-04-06T05:26:05;23.45;;;9.13;;
31692;SDS011;37436;53.230;6.614;2023-04-06T05:28:33;20.88;;;8.23;;
31692;SDS011;37436;53.230;6.614;2023-04-06T05:31:01;26.27;;;9.60;;
31692;SDS011;37436;53.230;6.614;2023-04-06T05:33:31;23.85;;;8.00;;
31692;SDS011;37436;53.230;6.614;2023-04-06T05:35:57;37.53;;;8.38;;
31692;SDS011;37436;53.230;6.614;2023-04-06T05:38:25;21.15;;;8.63;;
31692;SDS011;37436;53.230;6.614;2023-04-06T05:40:58;21.63;;;8.50;;
31692;SDS011;37436;53.230;6.614;2023-04-06T05:43:30;26.52;;;8.43;;
31692;SDS011;37436;53.230;6.614;2023-04-06T05:45:56;25.90;;;8.27;;
31692;SDS011;37436;53.230;6.614;2023-04-06T05:48:22;21.08;;;8.05;;
31692;SDS011;37436;53.230;6.614;2023-04-06T05:50:51;17.15;;;8.38;;
31692;SDS011;37436;53.230;6.614;2023-04-06T05:53:20;21.25;;;8.63;;
31692;SDS011;37436;53.230;6.614;2023-04-06T05:55:47;23.92;;;7.75;;
31692;SDS011;37436;53.230;6.614;2023-04-06T05:58:13;27.77;;;9.40;;
31692;SDS011;37436;53.230;6.614;2023-04-06T06:00:40;19.88;;;8.95;;
31692;SDS011;37436;53.230;6.614;2023-04-06T06:03:07;23.88;;;8.18;;
31692;SDS011;37436;53.230;6.614;2023-04-06T06:05:34;20.83;;;7.90;;
31692;SDS011;37436;53.230;6.614;2023-04-06T06:08:00;19.30;;;7.63;;
31692;SDS011;37436;53.230;6.614;2023-04-06T06:10:27;25.17;;;7.93;;
31692;SDS011;37436;53.230;6.614;2023-04-06T06:12:53;28.20;;;7.40;;
31692;SDS011;37436;53.230;6.614;2023-04-06T06:15:19;19.10;;;8.57;;
31692;SDS011;37436;53.230;6.614;2023-04-06T06:17:45;47.67;;;9.48;;
31692;SDS011;37436;53.230;6.614;2023-04-06T06:20:13;18.85;;;7.55;;
31692;SDS011;37436;53.230;6.614;2023-04-06T06:22:39;25.17;;;8.13;;
31692;SDS011;37436;53.230;6.614;2023-04-06T06:25:05;16.52;;;8.80;;
31692;SDS011;37436;53.230;6.614;2023-04-06T06:27:34;15.50;;;7.13;;
31692;SDS011;37436;53.230;6.614;2023-04-06T06:30:01;16.15;;;6.70;;
31692;SDS011;37436;53.230;6.614;2023-04-06T06:32:28;12.32;;;7.25;;
31692;SDS011;37436;53.230;6.614;2023-04-06T06:35:03;13.38;;;7.38;;
31692;SDS011;37436;53.230;6.614;2023-04-06T06:37:30;12.30;;;7.65;;
31692;SDS011;37436;53.230;6.614;2023-04-06T06:39:56;22.23;;;7.10;;
31692;SDS011;37436;53.230;6.614;2023-04-06T06:42:23;17.33;;;8.27;;
31692;SDS011;37436;53.230;6.614;2023-04-06T06:44:50;28.05;;;7.78;;
31692;SDS011;37436;53.230;6.614;2023-04-06T06:47:17;16.33;;;7.85;;
31692;SDS011;37436;53.230;6.614;2023-04-06T06:49:43;12.02;;;7.78;;
31692;SDS011;37436;53.230;6.614;2023-04-06T06:52:12;18.20;;;7.55;;
31692;SDS011;37436;53.230;6.614;2023-04-06T06:54:38;15.30;;;8.30;;
31692;SDS011;37436;53.230;6.614;2023-04-06T06:57:04;17.38;;;7.65;;
31692;SDS011;37436;53.230;6.614;2023-04-06T06:59:33;14.07;;;7.97;;
31692;SDS011;37436;53.230;6.614;2023-04-06T07:02:03;18.98;;;8.18;;
31692;SDS011;37436;53.230;6.614;2023-04-06T07:04:29;15.95;;;8.10;;
31692;SDS011;37436;53.230;6.614;2023-04-06T07:06:55;18.08;;;7.75;;
31692;SDS011;37436;53.230;6.614;2023-04-06T07:09:21;16.10;;;8.18;;
31692;SDS011;37436;53.230;6.614;2023-04-06T07:11:51;21.05;;;8.57;;
31692;SDS011;37436;53.230;6.614;2023-04-06T07:14:17;16.13;;;7.53;;
31692;SDS011;37436;53.230;6.614;2023-04-06T07:16:43;12.52;;;6.63;;
31692;SDS011;37436;53.230;6.614;2023-04-06T07:19:14;15.07;;;7.65;;
31692;SDS011;37436;53.230;6.614;2023-04-06T07:21:40;12.90;;;7.95;;
31692;SDS011;37436;53.230;6.614;2023-04-06T07:24:09;12.18;;;7.88;;
31692;SDS011;37436;53.230;6.614;2023-04-06T07:26:35;22.05;;;7.45;;
31692;SDS011;37436;53.230;6.614;2023-04-06T07:29:01;19.42;;;8.45;;
31692;SDS011;37436;53.230;6.614;2023-04-06T07:31:29;22.15;;;8.40;;
31692;SDS011;37436;53.230;6.614;2023-04-06T07:33:57;14.77;;;7.78;;
31692;SDS011;37436;53.230;6.614;2023-04-06T07:36:26;14.38;;;8.07;;
31692;SDS011;37436;53.230;6.614;2023-04-06T07:38:53;11.32;;;7.15;;
31692;SDS011;37436;53.230;6.614;2023-04-06T07:41:19;13.65;;;7.15;;
31692;SDS011;37436;53.230;6.614;2023-04-06T07:43:46;17.48;;;8.30;;
31692;SDS011;37436;53.230;6.614;2023-04-06T07:46:12;16.20;;;8.52;;
31692;SDS011;37436;53.230;6.614;2023-04-06T07:48:38;12.40;;;7.68;;
31692;SDS011;37436;53.230;6.614;2023-04-06T07:51:05;15.38;;;6.82;;
31692;SDS011;37436;53.230;6.614;2023-04-06T07:53:31;12.77;;;7.95;;
31692;SDS011;37436;53.230;6.614;2023-04-06T07:55:59;9.98;;;7.05;;
31692;SDS011;37436;53.230;6.614;2023-04-06T07:58:25;16.80;;;7.68;;
31692;SDS011;37436;53.230;6.614;2023-04-06T08:00:51;14.18;;;8.40;;
31692;SDS011;37436;53.230;6.614;2023-04-06T08:03:32;13.80;;;7.93;;
31692;SDS011;37436;53.230;6.614;2023-04-06T08:05:59;17.38;;;8.88;;
31692;SDS011;37436;53.230;6.614;2023-04-06T08:08:25;13.90;;;7.68;;
31692;SDS011;37436;53.230;6.614;2023-04-06T08:10:52;16.05;;;7.65;;
31692;SDS011;37436;53.230;6.614;2023-04-06T08:13:20;20.20;;;8.90;;
31692;SDS011;37436;53.230;6.614;2023-04-06T08:15:49;20.98;;;8.85;;
31692;SDS011;37436;53.230;6.614;2023-04-06T08:18:18;21.10;;;9.20;;
31692;SDS011;37436;53.230;6.614;2023-04-06T08:20:45;38.30;;;9.77;;
31692;SDS011;37436;53.230;6.614;2023-04-06T08:23:11;16.77;;;8.57;;
31692;SDS011;37436;53.230;6.614;2023-04-06T08:25:37;23.02;;;9.40;;
31692;SDS011;37436;53.230;6.614;2023-04-06T08:28:24;16.15;;;9.00;;
31692;SDS011;37436;53.230;6.614;2023-04-06T08:33:30;13.98;;;7.57;;
31692;SDS011;37436;53.230;6.614;2023-04-06T08:36:13;18.88;;;7.80;;
31692;SDS011;37436;53.230;6.614;2023-04-06T08:38:49;18.50;;;8.20;;
31692;SDS011;37436;53.230;6.614;2023-04-06T08:41:35;14.27;;;7.95;;
31692;SDS011;37436;53.230;6.614;2023-04-06T08:44:35;14.43;;;8.20;;
31692;SDS011;37436;53.230;6.614;2023-04-06T08:47:02;22.50;;;10.25;;
31692;SDS011;37436;53.230;6.614;2023-04-06T08:49:30;18.40;;;8.77;;
31692;SDS011;37436;53.230;6.614;2023-04-06T08:52:20;21.03;;;9.07;;
31692;SDS011;37436;53.230;6.614;2023-04-06T08:54:46;14.13;;;8.63;;
31692;SDS011;37436;53.230;6.614;2023-04-06T08:57:14;26.55;;;8.93;;
31692;SDS011;37436;53.230;6.614;2023-04-06T08:59:53;16.80;;;8.90;;
31692;SDS011;37436;53.230;6.614;2023-04-06T09:02:23;24.57;;;9.37;;
31692;SDS011;37436;53.230;6.614;2023-04-06T09:04:53;16.08;;;7.60;;
31692;SDS011;37436;53.230;6.614;2023-04-06T09:10:50;16.08;;;7.80;;
31692;SDS011;37436;53.230;6.614;2023-04-06T09:16:03;16.25;;;9.48;;
31692;SDS011;37436;53.230;6.614;2023-04-06T09:21:45;14.32;;;7.95;;
31692;SDS011;37436;53.230;6.614;2023-04-06T09:24:11;15.68;;;8.57;;
31692;SDS011;37436;53.230;6.614;2023-04-06T09:26:52;16.00;;;8.73;;
31692;SDS011;37436;53.230;6.614;2023-04-06T09:29:24;21.73;;;7.75;;
31692;SDS011;37436;53.230;6.614;2023-04-06T09:32:10;14.05;;;8.32;;
31692;SDS011;37436;53.230;6.614;2023-04-06T09:35:06;14.93;;;8.65;;
31692;SDS011;37436;53.230;6.614;2023-04-06T09:37:40;16.45;;;9.20;;
31692;SDS011;37436;53.230;6.614;2023-04-06T09:40:12;17.90;;;8.50;;
31692;SDS011;37436;53.230;6.614;2023-04-06T09:42:47;15.60;;;8.27;;
31692;SDS011;37436;53.230;6.614;2023-04-06T09:45:18;16.67;;;9.05;;
31692;SDS011;37436;53.230;6.614;2023-04-06T09:47:46;15.77;;;8.43;;
31692;SDS011;37436;53.230;6.614;2023-04-06T09:50:12;16.63;;;8.82;;
31692;SDS011;37436;53.230;6.614;2023-04-06T09:52:53;17.85;;;8.50;;
31692;SDS011;37436;53.230;6.614;2023-04-06T09:55:25;18.98;;;9.18;;
31692;SDS011;37436;53.230;6.614;2023-04-06T10:01:02;22.27;;;8.90;;
31692;SDS011;37436;53.230;6.614;2023-04-06T10:03:40;16.77;;;8.65;;
31692;SDS011;37436;53.230;6.614;2023-04-06T10:06:13;16.73;;;8.25;;
31692;SDS011;37436;53.230;6.614;2023-04-06T10:08:41;17.92;;;10.02;;
31692;SDS011;37436;53.230;6.614;2023-04-06T10:11:09;14.50;;;8.90;;
31692;SDS011;37436;53.230;6.614;2023-04-06T10:13:36;14.60;;;8.60;;
31692;SDS011;37436;53.230;6.614;2023-04-06T10:16:26;20.02;;;11.07;;
31692;SDS011;37436;53.230;6.614;2023-04-06T10:19:16;18.50;;;10.05;;
31692;SDS011;37436;53.230;6.614;2023-04-06T10:21:45;21.15;;;10.88;;
31692;SDS011;37436;53.230;6.614;2023-04-06T10:27:37;18.73;;;10.20;;
31692;SDS011;37436;53.230;6.614;2023-04-06T10:30:34;18.30;;;9.68;;
31692;SDS011;37436;53.230;6.614;2023-04-06T10:33:24;22.98;;;11.70;;
31692;SDS011;37436;53.230;6.614;2023-04-06T10:35:56;19.90;;;10.55;;
31692;SDS011;37436;53.230;6.614;2023-04-06T10:38:38;20.08;;;9.57;;
31692;SDS011;37436;53.230;6.614;2023-04-06T10:41:16;20.77;;;11.10;;
31692;SDS011;37436;53.230;6.614;2023-04-06T10:43:46;24.98;;;11.65;;
31692;SDS011;37436;53.230;6.614;2023-04-06T10:46:24;17.88;;;9.52;;
31692;SDS011;37436;53.230;6.614;2023-04-06T10:48:51;21.58;;;11.32;;
31692;SDS011;37436;53.230;6.614;2023-04-06T10:51:18;19.38;;;11.77;;
31692;SDS011;37436;53.230;6.614;2023-04-06T10:53:56;26.67;;;12.82;;
31692;SDS011;37436;53.230;6.614;2023-04-06T10:56:24;29.63;;;13.25;;
31692;SDS011;37436;53.230;6.614;2023-04-06T10:58:58;23.88;;;12.43;;
31692;SDS011;37436;53.230;6.614;2023-04-06T11:01:24;23.55;;;12.10;;
31692;SDS011;37436;53.230;6.614;2023-04-06T11:03:53;25.52;;;12.75;;
31692;SDS011;37436;53.230;6.614;2023-04-06T11:06:29;40.92;;;15.15;;
31692;SDS011;37436;53.230;6.614;2023-04-06T11:09:00;21.17;;;12.02;;
31692;SDS011;37436;53.230;6.614;2023-04-06T11:11:26;23.50;;;12.13;;
31692;SDS011;37436;53.230;6.614;2023-04-06T11:13:53;25.17;;;13.88;;
31692;SDS011;37436;53.230;6.614;2023-04-06T11:16:20;26.88;;;14.48;;
31692;SDS011;37436;53.230;6.614;2023-04-06T11:18:54;29.27;;;14.65;;
31692;SDS011;37436;53.230;6.614;2023-04-06T11:21:37;21.55;;;13.68;;
31692;SDS011;37436;53.230;6.614;2023-04-06T11:24:38;26.17;;;13.57;;
31692;SDS011;37436;53.230;6.614;2023-04-06T11:27:04;29.38;;;15.88;;
31692;SDS011;37436;53.230;6.614;2023-04-06T11:29:35;35.05;;;18.40;;
31692;SDS011;37436;53.230;6.614;2023-04-06T11:32:38;35.42;;;17.77;;
31692;SDS011;37436;53.230;6.614;2023-04-06T11:35:10;47.50;;;20.00;;
31692;SDS011;37436;53.230;6.614;2023-04-06T11:37:39;38.13;;;18.65;;
31692;SDS011;37436;53.230;6.614;2023-04-06T11:40:11;36.00;;;18.75;;
31692;SDS011;37436;53.230;6.614;2023-04-06T11:42:44;35.90;;;18.55;;
31692;SDS011;37436;53.230;6.614;2023-04-06T11:45:18;35.33;;;17.65;;
31692;SDS011;37436;53.230;6.614;2023-04-06T11:47:55;41.78;;;18.70;;
31692;SDS011;37436;53.230;6.614;2023-04-06T11:50:22;40.53;;;18.15;;
31692;SDS011;37436;53.230;6.614;2023-04-06T11:53:00;31.98;;;17.52;;
31692;SDS011;37436;53.230;6.614;2023-04-06T11:56:01;41.45;;;19.42;;
31692;SDS011;37436;53.230;6.614;2023-04-06T11:58:33;35.72;;;19.52;;
31692;SDS011;37436;53.230;6.614;2023-04-06T12:01:05;40.75;;;16.75;;
31692;SDS011;37436;53.230;6.614;2023-04-06T12:03:40;38.92;;;21.02;;
31692;SDS011;37436;53.230;6.614;2023-04-06T12:06:06;34.42;;;15.57;;
31692;SDS011;37436;53.230;6.614;2023-04-06T12:08:33;53.47;;;20.20;;
31692;SDS011;37436;53.230;6.614;2023-04-06T12:10:59;34.00;;;18.73;;
31692;SDS011;37436;53.230;6.614;2023-04-06T12:13:26;41.17;;;19.67;;
31692;SDS011;37436;53.230;6.614;2023-04-06T12:15:55;40.78;;;18.70;;
31692;SDS011;37436;53.230;6.614;2023-04-06T12:18:21;37.03;;;18.67;;
31692;SDS011;37436;53.230;6.614;2023-04-06T12:23:51;43.70;;;19.45;;
31692;SDS011;37436;53.230;6.614;2023-04-06T12:26:20;32.78;;;18.50;;
31692;SDS011;37436;53.230;6.614;2023-04-06T12:29:10;35.60;;;18.77;;
31692;SDS011;37436;53.230;6.614;2023-04-06T12:31:38;42.70;;;19.27;;
31692;SDS011;37436;53.230;6.614;2023-04-06T12:34:07;37.90;;;16.15;;
31692;SDS011;37436;53.230;6.614;2023-04-06T12:36:36;37.15;;;19.52;;
31692;SDS011;37436;53.230;6.614;2023-04-06T12:39:10;39.65;;;20.38;;
31692;SDS011;37436;53.230;6.614;2023-04-06T12:41:42;36.67;;;18.67;;
31692;SDS011;37436;53.230;6.614;2023-04-06T12:44:10;41.60;;;20.23;;
31692;SDS011;37436;53.230;6.614;2023-04-06T12:46:37;35.13;;;19.02;;
31692;SDS011;37436;53.230;6.614;2023-04-06T12:49:03;36.58;;;19.20;;
31692;SDS011;37436;53.230;6.614;2023-04-06T12:51:30;29.38;;;14.15;;
31692;SDS011;37436;53.230;6.614;2023-04-06T12:53:57;41.13;;;18.80;;
31692;SDS011;37436;53.230;6.614;2023-04-06T12:56:26;34.55;;;16.00;;
31692;SDS011;37436;53.230;6.614;2023-04-06T12:58:52;37.97;;;18.27;;
31692;SDS011;37436;53.230;6.614;2023-04-06T13:01:21;35.75;;;16.10;;
31692;SDS011;37436;53.230;6.614;2023-04-06T13:03:55;30.52;;;14.38;;
31692;SDS011;37436;53.230;6.614;2023-04-06T13:06:25;40.50;;;18.48;;
31692;SDS011;37436;53.230;6.614;2023-04-06T13:11:48;36.40;;;17.65;;
31692;SDS011;37436;53.230;6.614;2023-04-06T13:14:14;35.50;;;19.17;;
31692;SDS011;37436;53.230;6.614;2023-04-06T13:16:44;37.00;;;18.55;;
31692;SDS011;37436;53.230;6.614;2023-04-06T13:19:11;38.47;;;19.10;;
31692;SDS011;37436;53.230;6.614;2023-04-06T13:21:39;44.40;;;19.00;;
31692;SDS011;37436;53.230;6.614;2023-04-06T13:24:05;37.40;;;17.50;;
31692;SDS011;37436;53.230;6.614;2023-04-06T13:26:31;34.53;;;16.40;;
31692;SDS011;37436;53.230;6.614;2023-04-06T13:29:07;43.15;;;19.42;;
31692;SDS011;37436;53.230;6.614;2023-04-06T13:31:33;38.20;;;19.55;;
31692;SDS011;37436;53.230;6.614;2023-04-06T13:33:59;39.05;;;18.98;;
31692;SDS011;37436;53.230;6.614;2023-04-06T13:39:21;40.30;;;19.45;;
31692;SDS011;37436;53.230;6.614;2023-04-06T13:41:56;26.55;;;13.23;;
31692;SDS011;37436;53.230;6.614;2023-04-06T13:44:44;34.55;;;15.48;;
31692;SDS011;37436;53.230;6.614;2023-04-06T13:47:12;32.78;;;15.63;;
31692;SDS011;37436;53.230;6.614;2023-04-06T13:49:38;28.38;;;15.30;;
31692;SDS011;37436;53.230;6.614;2023-04-06T13:52:04;34.13;;;18.15;;
31692;SDS011;37436;53.230;6.614;2023-04-06T13:54:31;38.80;;;19.90;;
31692;SDS011;37436;53.230;6.614;2023-04-06T13:56:57;37.33;;;17.50;;
31692;SDS011;37436;53.230;6.614;2023-04-06T13:59:23;36.40;;;16.90;;
31692;SDS011;37436;53.230;6.614;2023-04-06T14:01:52;36.53;;;19.83;;
31692;SDS011;37436;53.230;6.614;2023-04-06T14:04:30;29.55;;;13.23;;
31692;SDS011;37436;53.230;6.614;2023-04-06T14:06:57;42.65;;;19.65;;
31692;SDS011;37436;53.230;6.614;2023-04-06T14:09:23;34.83;;;17.85;;
31692;SDS011;37436;53.230;6.614;2023-04-06T14:11:53;38.08;;;17.50;;
31692;SDS011;37436;53.230;6.614;2023-04-06T14:14:20;31.15;;;16.15;;
31692;SDS011;37436;53.230;6.614;2023-04-06T14:16:49;28.30;;;14.60;;
31692;SDS011;37436;53.230;6.614;2023-04-06T14:19:16;32.63;;;11.32;;
31692;SDS011;37436;53.230;6.614;2023-04-06T14:21:52;34.97;;;15.35;;
31692;SDS011;37436;53.230;6.614;2023-04-06T14:24:25;32.58;;;14.38;;
31692;SDS011;37436;53.230;6.614;2023-04-06T14:26:51;25.50;;;13.45;;
31692;SDS011;37436;53.230;6.614;2023-04-06T14:29:18;19.20;;;9.07;;
31692;SDS011;37436;53.230;6.614;2023-04-06T14:31:47;25.10;;;12.35;;
31692;SDS011;37436;53.230;6.614;2023-04-06T14:34:16;25.90;;;10.68;;
31692;SDS011;37436;53.230;6.614;2023-04-06T14:36:42;37.80;;;14.57;;
31692;SDS011;37436;53.230;6.614;2023-04-06T14:39:08;23.65;;;12.68;;
31692;SDS011;37436;53.230;6.614;2023-04-06T14:41:49;19.35;;;9.65;;
31692;SDS011;37436;53.230;6.614;2023-04-06T14:44:19;30.67;;;15.07;;
31692;SDS011;37436;53.230;6.614;2023-04-06T14:46:47;30.75;;;14.30;;
31692;SDS011;37436;53.230;6.614;2023-04-06T14:49:19;25.65;;;12.77;;
31692;SDS011;37436;53.230;6.614;2023-04-06T14:51:45;25.80;;;11.65;;
31692;SDS011;37436;53.230;6.614;2023-04-06T14:54:11;26.23;;;12.02;;
31692;SDS011;37436;53.230;6.614;2023-04-06T14:56:37;22.38;;;11.10;;
31692;SDS011;37436;53.230;6.614;2023-04-06T14:59:04;33.63;;;13.95;;
31692;SDS011;37436;53.230;6.614;2023-04-06T15:01:33;20.48;;;12.48;;
31692;SDS011;37436;53.230;6.614;2023-04-06T15:04:03;29.17;;;9.60;;
31692;SDS011;37436;53.230;6.614;2023-04-06T15:06:32;28.35;;;14.32;;
31692;SDS011;37436;53.230;6.614;2023-04-06T15:08:58;18.90;;;9.25;;
31692;SDS011;37436;53.230;6.614;2023-04-06T15:11:26;25.35;;;12.10;;
31692;SDS011;37436;53.230;6.614;2023-04-06T15:13:53;24.33;;;11.80;;